sensor_id;sensor_type;location;lat;lon;timestamp;P1;durP1;ratioP1;P2;durP2;ratioP2
2772;SDS011;1394;47.044;15.744;2024-01-15T00:01:09;38.53;;;14.53;;
2772;SDS011;1394;47.044;15.744;2024-01-15T00:03:36;37.47;;;13.97;;
2772;SDS011;1394;47.044;15.744;2024-01-15T00:06:03;39.17;;;15.40;;
2772;SDS011;1394;47.044;15.744;2024-01-15T00:08:32;35.67;;;11.70;;
2772;SDS011;1394;47.044;15.744;2024-01-15T00:11:00;37.23;;;14.23;;
2772;SDS011;1394;47.044;15.744;2024-01-15T00:13:28;35.90;;;12.70;;
2772;SDS011;1394;47.044;15.744;2024-01-15T00:15:57;37.17;;;15.00;;
2772;SDS011;1394;47.044;15.744;2024-01-15T00:18:24;40.70;;;14.67;;
2772;SDS011;1394;47.044;15.744;2024-01-15T00:20:52;38.40;;;15.63;;
2772;SDS011;1394;47.044;15.744;2024-01-15T00:23:19;37.47;;;14.20;;
2772;SDS011;1394;47.044;15.744;2024-01-15T00:25:46;38.67;;;15.80;;
2772;SDS011;1394;47.044;15.744;2024-01-15T00:28:15;37.50;;;13.97;;
2772;SDS011;1394;47.044;15.744;2024-01-15T00:30:42;37.70;;;14.50;;
2772;SDS011;1394;47.044;15.744;2024-01-15T00:33:10;37.03;;;13.93;;
2772;SDS011;1394;47.044;15.744;2024-01-15T00:35:38;37.53;;;12.90;;
2772;SDS011;1394;47.044;15.744;2024-01-15T00:38:05;34.90;;;13.30;;
2772;SDS011;1394;47.044;15.744;2024-01-15T00:40:32;35.80;;;12.77;;
2772;SDS011;1394;47.044;15.744;2024-01-15T00:43:00;33.73;;;10.47;;
2772;SDS011;1394;47.044;15.744;2024-01-15T00:45:28;37.20;;;13.37;;
2772;SDS011;1394;47.044;15.744;2024-01-15T00:47:56;37.20;;;13.80;;
2772;SDS011;1394;47.044;15.744;2024-01-15T00:50:25;36.83;;;13.93;;
2772;SDS011;1394;47.044;15.744;2024-01-15T00:52:52;37.27;;;13.40;;
2772;SDS011;1394;47.044;15.744;2024-01-15T00:55:19;37.40;;;14.17;;
2772;SDS011;1394;47.044;15.744;2024-01-15T00:57:47;36.93;;;14.13;;
2772;SDS011;1394;47.044;15.744;2024-01-15T01:00:17;37.70;;;14.10;;
2772;SDS011;1394;47.044;15.744;2024-01-15T01:02:46;36.50;;;14.17;;
2772;SDS011;1394;47.044;15.744;2024-01-15T01:05:14;35.10;;;12.73;;
2772;SDS011;1394;47.044;15.744;2024-01-15T01:07:41;37.73;;;14.13;;
2772;SDS011;1394;47.044;15.744;2024-01-15T01:10:09;38.17;;;14.27;;
2772;SDS011;1394;47.044;15.744;2024-01-15T01:12:36;38.00;;;14.07;;
2772;SDS011;1394;47.044;15.744;2024-01-15T01:15:04;38.33;;;14.23;;
2772;SDS011;1394;47.044;15.744;2024-01-15T01:17:33;35.60;;;12.70;;
2772;SDS011;1394;47.044;15.744;2024-01-15T01:20:02;35.50;;;13.07;;
2772;SDS011;1394;47.044;15.744;2024-01-15T01:22:33;34.17;;;12.60;;
2772;SDS011;1394;47.044;15.744;2024-01-15T01:25:01;35.87;;;14.00;;
2772;SDS011;1394;47.044;15.744;2024-01-15T01:27:29;33.30;;;11.50;;
2772;SDS011;1394;47.044;15.744;2024-01-15T01:29:56;34.70;;;12.53;;
2772;SDS011;1394;47.044;15.744;2024-01-15T01:32:53;36.30;;;13.10;;
2772;SDS011;1394;47.044;15.744;2024-01-15T01:35:23;35.70;;;11.90;;
2772;SDS011;1394;47.044;15.744;2024-01-15T01:37:50;33.20;;;10.80;;
2772;SDS011;1394;47.044;15.744;2024-01-15T01:40:17;34.20;;;11.87;;
2772;SDS011;1394;47.044;15.744;2024-01-15T01:42:45;34.50;;;11.97;;
2772;SDS011;1394;47.044;15.744;2024-01-15T01:45:14;35.07;;;12.10;;
2772;SDS011;1394;47.044;15.744;2024-01-15T01:47:41;35.57;;;13.03;;
2772;SDS011;1394;47.044;15.744;2024-01-15T01:50:11;34.67;;;12.70;;
2772;SDS011;1394;47.044;15.744;2024-01-15T01:52:41;34.03;;;12.60;;
2772;SDS011;1394;47.044;15.744;2024-01-15T01:55:19;34.77;;;11.23;;
2772;SDS011;1394;47.044;15.744;2024-01-15T01:58:06;34.60;;;11.97;;
2772;SDS011;1394;47.044;15.744;2024-01-15T02:00:34;36.40;;;13.47;;
2772;SDS011;1394;47.044;15.744;2024-01-15T02:03:02;35.00;;;11.67;;
2772;SDS011;1394;47.044;15.744;2024-01-15T02:05:29;34.73;;;11.50;;
2772;SDS011;1394;47.044;15.744;2024-01-15T02:07:59;35.00;;;12.67;;
2772;SDS011;1394;47.044;15.744;2024-01-15T02:10:29;36.30;;;13.50;;
2772;SDS011;1394;47.044;15.744;2024-01-15T02:12:56;35.33;;;13.73;;
2772;SDS011;1394;47.044;15.744;2024-01-15T02:15:23;35.23;;;11.77;;
2772;SDS011;1394;47.044;15.744;2024-01-15T02:17:57;34.60;;;12.33;;
2772;SDS011;1394;47.044;15.744;2024-01-15T02:20:27;33.47;;;12.00;;
2772;SDS011;1394;47.044;15.744;2024-01-15T02:22:54;34.83;;;12.30;;
2772;SDS011;1394;47.044;15.744;2024-01-15T02:25:23;35.77;;;12.87;;
2772;SDS011;1394;47.044;15.744;2024-01-15T02:27:50;35.80;;;13.83;;
2772;SDS011;1394;47.044;15.744;2024-01-15T02:30:18;36.10;;;13.83;;
2772;SDS011;1394;47.044;15.744;2024-01-15T02:32:45;34.23;;;12.33;;
2772;SDS011;1394;47.044;15.744;2024-01-15T02:35:13;36.07;;;12.70;;
2772;SDS011;1394;47.044;15.744;2024-01-15T02:37:40;35.57;;;12.50;;
2772;SDS011;1394;47.044;15.744;2024-01-15T02:40:08;37.30;;;14.63;;
2772;SDS011;1394;47.044;15.744;2024-01-15T02:42:36;36.03;;;13.93;;
2772;SDS011;1394;47.044;15.744;2024-01-15T02:45:19;38.10;;;15.23;;
2772;SDS011;1394;47.044;15.744;2024-01-15T02:47:46;37.80;;;15.30;;
2772;SDS011;1394;47.044;15.744;2024-01-15T02:50:14;36.97;;;15.30;;
2772;SDS011;1394;47.044;15.744;2024-01-15T02:52:41;37.37;;;15.10;;
2772;SDS011;1394;47.044;15.744;2024-01-15T02:55:09;36.20;;;13.27;;
2772;SDS011;1394;47.044;15.744;2024-01-15T02:57:38;36.67;;;14.43;;
2772;SDS011;1394;47.044;15.744;2024-01-15T03:00:05;35.90;;;12.83;;
2772;SDS011;1394;47.044;15.744;2024-01-15T03:02:35;34.30;;;12.83;;
2772;SDS011;1394;47.044;15.744;2024-01-15T03:05:04;35.50;;;13.40;;
2772;SDS011;1394;47.044;15.744;2024-01-15T03:07:31;34.47;;;12.97;;
2772;SDS011;1394;47.044;15.744;2024-01-15T03:09:59;35.43;;;13.43;;
2772;SDS011;1394;47.044;15.744;2024-01-15T03:12:26;33.90;;;11.50;;
2772;SDS011;1394;47.044;15.744;2024-01-15T03:14:55;34.33;;;12.67;;
2772;SDS011;1394;47.044;15.744;2024-01-15T03:17:22;35.30;;;12.37;;
2772;SDS011;1394;47.044;15.744;2024-01-15T03:19:49;34.47;;;12.03;;
2772;SDS011;1394;47.044;15.744;2024-01-15T03:22:18;35.63;;;13.20;;
2772;SDS011;1394;47.044;15.744;2024-01-15T03:24:45;34.83;;;11.63;;
2772;SDS011;1394;47.044;15.744;2024-01-15T03:27:13;35.07;;;11.53;;
2772;SDS011;1394;47.044;15.744;2024-01-15T03:29:40;36.17;;;13.90;;
2772;SDS011;1394;47.044;15.744;2024-01-15T03:32:09;35.50;;;13.17;;
2772;SDS011;1394;47.044;15.744;2024-01-15T03:34:37;34.60;;;12.40;;
2772;SDS011;1394;47.044;15.744;2024-01-15T03:37:04;35.23;;;12.90;;
2772;SDS011;1394;47.044;15.744;2024-01-15T03:39:31;33.03;;;11.13;;
2772;SDS011;1394;47.044;15.744;2024-01-15T03:41:59;33.40;;;11.50;;
2772;SDS011;1394;47.044;15.744;2024-01-15T03:44:26;35.27;;;12.90;;
2772;SDS011;1394;47.044;15.744;2024-01-15T03:46:53;35.37;;;12.27;;
2772;SDS011;1394;47.044;15.744;2024-01-15T03:49:22;34.00;;;12.10;;
2772;SDS011;1394;47.044;15.744;2024-01-15T03:51:49;34.07;;;12.00;;
2772;SDS011;1394;47.044;15.744;2024-01-15T03:54:24;33.43;;;11.53;;
2772;SDS011;1394;47.044;15.744;2024-01-15T03:56:53;34.70;;;13.17;;
2772;SDS011;1394;47.044;15.744;2024-01-15T03:59:22;34.47;;;12.50;;
2772;SDS011;1394;47.044;15.744;2024-01-15T04:01:50;36.30;;;13.70;;
2772;SDS011;1394;47.044;15.744;2024-01-15T04:04:17;38.00;;;15.80;;
2772;SDS011;1394;47.044;15.744;2024-01-15T04:06:46;35.57;;;13.20;;
2772;SDS011;1394;47.044;15.744;2024-01-15T04:09:13;34.10;;;12.00;;
2772;SDS011;1394;47.044;15.744;2024-01-15T04:11:41;34.40;;;11.90;;
2772;SDS011;1394;47.044;15.744;2024-01-15T04:14:08;35.07;;;12.70;;
2772;SDS011;1394;47.044;15.744;2024-01-15T04:16:36;33.10;;;11.10;;
2772;SDS011;1394;47.044;15.744;2024-01-15T04:19:04;33.47;;;10.40;;
2772;SDS011;1394;47.044;15.744;2024-01-15T04:21:57;32.77;;;10.40;;
2772;SDS011;1394;47.044;15.744;2024-01-15T04:24:24;32.57;;;9.50;;
2772;SDS011;1394;47.044;15.744;2024-01-15T04:26:51;33.30;;;10.60;;
2772;SDS011;1394;47.044;15.744;2024-01-15T04:29:19;35.57;;;10.50;;
2772;SDS011;1394;47.044;15.744;2024-01-15T04:31:46;34.40;;;11.30;;
2772;SDS011;1394;47.044;15.744;2024-01-15T04:34:13;31.50;;;9.17;;
2772;SDS011;1394;47.044;15.744;2024-01-15T04:36:40;35.03;;;9.83;;
2772;SDS011;1394;47.044;15.744;2024-01-15T04:39:09;32.17;;;10.27;;
2772;SDS011;1394;47.044;15.744;2024-01-15T04:41:36;32.50;;;10.30;;
2772;SDS011;1394;47.044;15.744;2024-01-15T04:44:04;33.13;;;9.90;;
2772;SDS011;1394;47.044;15.744;2024-01-15T04:46:31;32.30;;;9.90;;
2772;SDS011;1394;47.044;15.744;2024-01-15T04:48:58;33.03;;;10.53;;
2772;SDS011;1394;47.044;15.744;2024-01-15T04:51:28;32.27;;;8.70;;
2772;SDS011;1394;47.044;15.744;2024-01-15T04:53:55;30.40;;;8.40;;
2772;SDS011;1394;47.044;15.744;2024-01-15T04:56:24;30.93;;;8.90;;
2772;SDS011;1394;47.044;15.744;2024-01-15T04:58:51;32.97;;;10.45;;
2772;SDS011;1394;47.044;15.744;2024-01-15T05:01:18;34.53;;;10.47;;
2772;SDS011;1394;47.044;15.744;2024-01-15T05:03:46;31.97;;;9.70;;
2772;SDS011;1394;47.044;15.744;2024-01-15T05:06:14;30.43;;;8.73;;
2772;SDS011;1394;47.044;15.744;2024-01-15T05:08:44;31.37;;;9.40;;
2772;SDS011;1394;47.044;15.744;2024-01-15T05:11:11;33.20;;;8.37;;
2772;SDS011;1394;47.044;15.744;2024-01-15T05:13:39;35.10;;;11.60;;
2772;SDS011;1394;47.044;15.744;2024-01-15T05:16:08;33.30;;;10.00;;
2772;SDS011;1394;47.044;15.744;2024-01-15T05:18:35;33.70;;;10.83;;
2772;SDS011;1394;47.044;15.744;2024-01-15T05:21:05;32.37;;;10.07;;
2772;SDS011;1394;47.044;15.744;2024-01-15T05:23:32;35.30;;;11.37;;
2772;SDS011;1394;47.044;15.744;2024-01-15T05:25:59;32.80;;;10.40;;
2772;SDS011;1394;47.044;15.744;2024-01-15T05:28:44;32.87;;;10.27;;
2772;SDS011;1394;47.044;15.744;2024-01-15T05:31:11;32.30;;;9.53;;
2772;SDS011;1394;47.044;15.744;2024-01-15T05:33:38;33.10;;;10.43;;
2772;SDS011;1394;47.044;15.744;2024-01-15T05:36:07;30.80;;;8.80;;
2772;SDS011;1394;47.044;15.744;2024-01-15T05:38:35;33.93;;;11.00;;
2772;SDS011;1394;47.044;15.744;2024-01-15T05:41:07;32.60;;;9.60;;
2772;SDS011;1394;47.044;15.744;2024-01-15T05:43:35;32.33;;;9.60;;
2772;SDS011;1394;47.044;15.744;2024-01-15T05:46:06;32.33;;;9.67;;
2772;SDS011;1394;47.044;15.744;2024-01-15T05:48:33;31.70;;;9.00;;
2772;SDS011;1394;47.044;15.744;2024-01-15T05:51:01;31.17;;;8.50;;
2772;SDS011;1394;47.044;15.744;2024-01-15T05:53:28;31.83;;;8.83;;
2772;SDS011;1394;47.044;15.744;2024-01-15T05:55:55;31.60;;;9.20;;
2772;SDS011;1394;47.044;15.744;2024-01-15T05:58:23;30.30;;;8.50;;
2772;SDS011;1394;47.044;15.744;2024-01-15T06:00:50;30.93;;;9.17;;
2772;SDS011;1394;47.044;15.744;2024-01-15T06:03:20;31.90;;;9.70;;
2772;SDS011;1394;47.044;15.744;2024-01-15T06:05:47;32.53;;;10.00;;
2772;SDS011;1394;47.044;15.744;2024-01-15T06:08:14;32.83;;;10.20;;
2772;SDS011;1394;47.044;15.744;2024-01-15T06:10:42;33.77;;;11.20;;
2772;SDS011;1394;47.044;15.744;2024-01-15T06:13:09;31.97;;;10.90;;
2772;SDS011;1394;47.044;15.744;2024-01-15T06:15:37;32.90;;;10.20;;
2772;SDS011;1394;47.044;15.744;2024-01-15T06:18:04;31.93;;;10.30;;
2772;SDS011;1394;47.044;15.744;2024-01-15T06:20:35;32.67;;;10.70;;
2772;SDS011;1394;47.044;15.744;2024-01-15T06:23:07;32.03;;;10.33;;
2772;SDS011;1394;47.044;15.744;2024-01-15T06:25:35;31.83;;;10.23;;
2772;SDS011;1394;47.044;15.744;2024-01-15T06:28:04;30.83;;;9.00;;
2772;SDS011;1394;47.044;15.744;2024-01-15T06:30:34;30.27;;;8.37;;
2772;SDS011;1394;47.044;15.744;2024-01-15T06:33:04;29.47;;;7.63;;
2772;SDS011;1394;47.044;15.744;2024-01-15T06:35:32;29.77;;;7.23;;
2772;SDS011;1394;47.044;15.744;2024-01-15T06:38:01;31.77;;;9.47;;
2772;SDS011;1394;47.044;15.744;2024-01-15T06:40:28;31.10;;;9.97;;
2772;SDS011;1394;47.044;15.744;2024-01-15T06:42:55;32.70;;;11.17;;
2772;SDS011;1394;47.044;15.744;2024-01-15T06:45:24;33.00;;;11.20;;
2772;SDS011;1394;47.044;15.744;2024-01-15T06:47:51;35.97;;;13.00;;
2772;SDS011;1394;47.044;15.744;2024-01-15T06:50:18;34.30;;;12.60;;
2772;SDS011;1394;47.044;15.744;2024-01-15T06:52:46;37.70;;;14.10;;
2772;SDS011;1394;47.044;15.744;2024-01-15T06:55:15;38.67;;;15.63;;
2772;SDS011;1394;47.044;15.744;2024-01-15T06:57:45;37.03;;;13.90;;
2772;SDS011;1394;47.044;15.744;2024-01-15T07:00:15;37.10;;;12.43;;
2772;SDS011;1394;47.044;15.744;2024-01-15T07:02:44;36.90;;;13.27;;
2772;SDS011;1394;47.044;15.744;2024-01-15T07:05:11;35.17;;;12.60;;
2772;SDS011;1394;47.044;15.744;2024-01-15T07:07:39;34.50;;;11.87;;
2772;SDS011;1394;47.044;15.744;2024-01-15T07:10:07;34.50;;;11.90;;
2772;SDS011;1394;47.044;15.744;2024-01-15T07:12:36;33.07;;;11.20;;
2772;SDS011;1394;47.044;15.744;2024-01-15T07:15:04;32.00;;;10.13;;
2772;SDS011;1394;47.044;15.744;2024-01-15T07:17:33;36.23;;;11.00;;
2772;SDS011;1394;47.044;15.744;2024-01-15T07:20:00;36.83;;;12.60;;
2772;SDS011;1394;47.044;15.744;2024-01-15T07:22:28;35.33;;;11.00;;
2772;SDS011;1394;47.044;15.744;2024-01-15T07:24:56;36.30;;;11.40;;
2772;SDS011;1394;47.044;15.744;2024-01-15T07:27:23;34.60;;;11.43;;
2772;SDS011;1394;47.044;15.744;2024-01-15T07:29:52;33.63;;;10.90;;
2772;SDS011;1394;47.044;15.744;2024-01-15T07:32:19;34.13;;;10.07;;
2772;SDS011;1394;47.044;15.744;2024-01-15T07:34:46;34.20;;;11.43;;
2772;SDS011;1394;47.044;15.744;2024-01-15T07:37:16;31.47;;;9.37;;
2772;SDS011;1394;47.044;15.744;2024-01-15T07:39:43;34.60;;;12.17;;
2772;SDS011;1394;47.044;15.744;2024-01-15T07:42:10;33.20;;;9.50;;
2772;SDS011;1394;47.044;15.744;2024-01-15T07:44:38;33.20;;;10.17;;
2772;SDS011;1394;47.044;15.744;2024-01-15T07:47:09;35.10;;;10.97;;
2772;SDS011;1394;47.044;15.744;2024-01-15T07:49:37;31.70;;;9.50;;
2772;SDS011;1394;47.044;15.744;2024-01-15T07:52:04;31.90;;;9.80;;
2772;SDS011;1394;47.044;15.744;2024-01-15T07:54:31;32.63;;;9.60;;
2772;SDS011;1394;47.044;15.744;2024-01-15T07:56:59;31.57;;;9.67;;
2772;SDS011;1394;47.044;15.744;2024-01-15T07:59:28;33.50;;;10.07;;
2772;SDS011;1394;47.044;15.744;2024-01-15T08:01:56;32.17;;;9.97;;
2772;SDS011;1394;47.044;15.744;2024-01-15T08:04:27;33.90;;;9.30;;
2772;SDS011;1394;47.044;15.744;2024-01-15T08:06:55;31.23;;;8.97;;
2772;SDS011;1394;47.044;15.744;2024-01-15T08:09:25;30.77;;;8.20;;
2772;SDS011;1394;47.044;15.744;2024-01-15T08:11:52;33.00;;;9.80;;
2772;SDS011;1394;47.044;15.744;2024-01-15T08:14:19;32.43;;;8.70;;
2772;SDS011;1394;47.044;15.744;2024-01-15T08:16:46;34.00;;;9.43;;
2772;SDS011;1394;47.044;15.744;2024-01-15T08:19:15;30.83;;;8.50;;
2772;SDS011;1394;47.044;15.744;2024-01-15T08:21:47;32.27;;;9.70;;
2772;SDS011;1394;47.044;15.744;2024-01-15T08:24:17;31.00;;;8.90;;
2772;SDS011;1394;47.044;15.744;2024-01-15T08:26:47;31.23;;;8.80;;
2772;SDS011;1394;47.044;15.744;2024-01-15T08:29:15;31.40;;;8.83;;
2772;SDS011;1394;47.044;15.744;2024-01-15T08:31:44;30.10;;;8.13;;
2772;SDS011;1394;47.044;15.744;2024-01-15T08:34:11;29.70;;;7.97;;
2772;SDS011;1394;47.044;15.744;2024-01-15T08:36:39;31.90;;;9.60;;
2772;SDS011;1394;47.044;15.744;2024-01-15T08:39:10;31.33;;;8.63;;
2772;SDS011;1394;47.044;15.744;2024-01-15T08:41:38;31.87;;;9.93;;
2772;SDS011;1394;47.044;15.744;2024-01-15T08:44:06;32.30;;;9.00;;
2772;SDS011;1394;47.044;15.744;2024-01-15T08:46:33;29.63;;;7.50;;
2772;SDS011;1394;47.044;15.744;2024-01-15T08:49:00;29.90;;;8.50;;
2772;SDS011;1394;47.044;15.744;2024-01-15T08:51:29;31.33;;;8.47;;
2772;SDS011;1394;47.044;15.744;2024-01-15T08:53:56;31.50;;;8.40;;
2772;SDS011;1394;47.044;15.744;2024-01-15T08:56:27;31.57;;;8.50;;
2772;SDS011;1394;47.044;15.744;2024-01-15T08:58:56;31.40;;;8.10;;
2772;SDS011;1394;47.044;15.744;2024-01-15T09:01:24;30.60;;;8.13;;
2772;SDS011;1394;47.044;15.744;2024-01-15T09:03:51;29.77;;;8.83;;
2772;SDS011;1394;47.044;15.744;2024-01-15T09:06:19;30.80;;;8.53;;
2772;SDS011;1394;47.044;15.744;2024-01-15T09:08:47;31.33;;;8.97;;
2772;SDS011;1394;47.044;15.744;2024-01-15T09:11:16;30.10;;;8.70;;
2772;SDS011;1394;47.044;15.744;2024-01-15T09:13:46;29.20;;;7.87;;
2772;SDS011;1394;47.044;15.744;2024-01-15T09:16:13;31.13;;;9.03;;
2772;SDS011;1394;47.044;15.744;2024-01-15T09:18:40;30.33;;;7.70;;
2772;SDS011;1394;47.044;15.744;2024-01-15T09:21:07;29.30;;;7.67;;
2772;SDS011;1394;47.044;15.744;2024-01-15T09:23:36;29.50;;;7.90;;
2772;SDS011;1394;47.044;15.744;2024-01-15T09:26:03;29.63;;;7.93;;
2772;SDS011;1394;47.044;15.744;2024-01-15T09:28:30;30.80;;;8.37;;
2772;SDS011;1394;47.044;15.744;2024-01-15T09:30:59;29.70;;;8.27;;
2772;SDS011;1394;47.044;15.744;2024-01-15T09:33:26;29.53;;;7.77;;
2772;SDS011;1394;47.044;15.744;2024-01-15T09:35:53;30.13;;;7.80;;
2772;SDS011;1394;47.044;15.744;2024-01-15T09:38:20;32.90;;;8.67;;
2772;SDS011;1394;47.044;15.744;2024-01-15T09:40:50;29.27;;;7.73;;
2772;SDS011;1394;47.044;15.744;2024-01-15T09:43:17;29.60;;;7.33;;
2772;SDS011;1394;47.044;15.744;2024-01-15T09:45:45;30.53;;;7.53;;
2772;SDS011;1394;47.044;15.744;2024-01-15T09:48:14;29.67;;;7.93;;
2772;SDS011;1394;47.044;15.744;2024-01-15T09:50:41;29.57;;;6.93;;
2772;SDS011;1394;47.044;15.744;2024-01-15T09:53:10;32.83;;;8.20;;
2772;SDS011;1394;47.044;15.744;2024-01-15T09:55:38;28.50;;;7.00;;
2772;SDS011;1394;47.044;15.744;2024-01-15T09:58:10;28.73;;;7.20;;
2772;SDS011;1394;47.044;15.744;2024-01-15T10:00:37;29.40;;;7.90;;
2772;SDS011;1394;47.044;15.744;2024-01-15T10:03:07;29.63;;;7.13;;
2772;SDS011;1394;47.044;15.744;2024-01-15T10:05:38;28.60;;;6.40;;
2772;SDS011;1394;47.044;15.744;2024-01-15T10:08:05;29.50;;;7.10;;
2772;SDS011;1394;47.044;15.744;2024-01-15T10:10:33;29.37;;;6.60;;
2772;SDS011;1394;47.044;15.744;2024-01-15T10:13:03;29.07;;;7.17;;
2772;SDS011;1394;47.044;15.744;2024-01-15T10:15:33;28.37;;;6.73;;
2772;SDS011;1394;47.044;15.744;2024-01-15T10:18:01;27.60;;;6.27;;
2772;SDS011;1394;47.044;15.744;2024-01-15T10:20:31;29.40;;;6.67;;
2772;SDS011;1394;47.044;15.744;2024-01-15T10:23:00;27.37;;;6.17;;
2772;SDS011;1394;47.044;15.744;2024-01-15T10:25:27;29.87;;;6.00;;
2772;SDS011;1394;47.044;15.744;2024-01-15T10:27:59;28.17;;;6.50;;
2772;SDS011;1394;47.044;15.744;2024-01-15T10:30:27;27.80;;;6.00;;
2772;SDS011;1394;47.044;15.744;2024-01-15T10:32:57;26.87;;;5.50;;
2772;SDS011;1394;47.044;15.744;2024-01-15T10:35:26;26.83;;;5.40;;
2772;SDS011;1394;47.044;15.744;2024-01-15T10:37:53;28.63;;;5.20;;
2772;SDS011;1394;47.044;15.744;2024-01-15T10:40:22;26.80;;;5.03;;
2772;SDS011;1394;47.044;15.744;2024-01-15T10:42:50;26.63;;;5.00;;
2772;SDS011;1394;47.044;15.744;2024-01-15T10:45:21;27.37;;;5.87;;
2772;SDS011;1394;47.044;15.744;2024-01-15T10:47:48;26.47;;;4.93;;
2772;SDS011;1394;47.044;15.744;2024-01-15T10:50:20;28.00;;;5.87;;
2772;SDS011;1394;47.044;15.744;2024-01-15T10:55:48;27.53;;;5.00;;
2772;SDS011;1394;47.044;15.744;2024-01-15T10:58:17;27.47;;;5.40;;
2772;SDS011;1394;47.044;15.744;2024-01-15T11:00:48;27.23;;;5.60;;
2772;SDS011;1394;47.044;15.744;2024-01-15T11:03:17;26.57;;;4.60;;
2772;SDS011;1394;47.044;15.744;2024-01-15T11:05:45;27.30;;;4.40;;
2772;SDS011;1394;47.044;15.744;2024-01-15T11:08:13;26.50;;;4.57;;
2772;SDS011;1394;47.044;15.744;2024-01-15T11:10:44;27.77;;;4.70;;
2772;SDS011;1394;47.044;15.744;2024-01-15T11:13:15;27.13;;;4.80;;
2772;SDS011;1394;47.044;15.744;2024-01-15T11:15:58;33.23;;;9.97;;
2772;SDS011;1394;47.044;15.744;2024-01-15T11:18:28;44.87;;;20.67;;
2772;SDS011;1394;47.044;15.744;2024-01-15T11:23:42;31.93;;;9.83;;
2772;SDS011;1394;47.044;15.744;2024-01-15T11:28:55;26.40;;;4.30;;
2772;SDS011;1394;47.044;15.744;2024-01-15T11:31:25;28.27;;;6.40;;
2772;SDS011;1394;47.044;15.744;2024-01-15T11:33:52;28.03;;;6.33;;
2772;SDS011;1394;47.044;15.744;2024-01-15T11:41:49;27.20;;;5.20;;
2772;SDS011;1394;47.044;15.744;2024-01-15T11:44:18;27.97;;;5.73;;
2772;SDS011;1394;47.044;15.744;2024-01-15T11:46:57;26.40;;;4.80;;
2772;SDS011;1394;47.044;15.744;2024-01-15T11:49:26;26.10;;;4.33;;
2772;SDS011;1394;47.044;15.744;2024-01-15T11:51:59;26.20;;;4.30;;
2772;SDS011;1394;47.044;15.744;2024-01-15T11:54:27;26.50;;;4.97;;
2772;SDS011;1394;47.044;15.744;2024-01-15T11:56:59;27.10;;;5.00;;
2772;SDS011;1394;47.044;15.744;2024-01-15T11:59:28;27.00;;;4.90;;
2772;SDS011;1394;47.044;15.744;2024-01-15T12:01:58;26.37;;;4.70;;
2772;SDS011;1394;47.044;15.744;2024-01-15T12:04:26;26.90;;;5.03;;
2772;SDS011;1394;47.044;15.744;2024-01-15T12:06:53;27.13;;;5.13;;
2772;SDS011;1394;47.044;15.744;2024-01-15T12:09:23;26.00;;;4.53;;
2772;SDS011;1394;47.044;15.744;2024-01-15T12:11:54;25.70;;;4.23;;
2772;SDS011;1394;47.044;15.744;2024-01-15T12:14:24;25.70;;;4.20;;
2772;SDS011;1394;47.044;15.744;2024-01-15T12:16:55;26.07;;;4.30;;
2772;SDS011;1394;47.044;15.744;2024-01-15T12:19:23;26.70;;;4.80;;
2772;SDS011;1394;47.044;15.744;2024-01-15T12:21:51;26.37;;;4.80;;
2772;SDS011;1394;47.044;15.744;2024-01-15T12:24:19;27.53;;;4.87;;
2772;SDS011;1394;47.044;15.744;2024-01-15T12:26:48;27.17;;;4.83;;
2772;SDS011;1394;47.044;15.744;2024-01-15T12:29:17;26.93;;;5.30;;
2772;SDS011;1394;47.044;15.744;2024-01-15T12:31:46;27.57;;;5.60;;
2772;SDS011;1394;47.044;15.744;2024-01-15T12:34:15;28.03;;;5.77;;
2772;SDS011;1394;47.044;15.744;2024-01-15T12:36:42;27.70;;;5.70;;
2772;SDS011;1394;47.044;15.744;2024-01-15T12:39:11;29.17;;;5.30;;
2772;SDS011;1394;47.044;15.744;2024-01-15T12:41:39;28.30;;;5.80;;
2772;SDS011;1394;47.044;15.744;2024-01-15T12:44:08;27.77;;;5.50;;
2772;SDS011;1394;47.044;15.744;2024-01-15T12:46:37;27.50;;;5.77;;
2772;SDS011;1394;47.044;15.744;2024-01-15T12:49:03;26.30;;;4.77;;
2772;SDS011;1394;47.044;15.744;2024-01-15T12:51:35;27.20;;;4.80;;
2772;SDS011;1394;47.044;15.744;2024-01-15T12:54:03;26.97;;;4.80;;
2772;SDS011;1394;47.044;15.744;2024-01-15T12:56:32;26.50;;;4.57;;
2772;SDS011;1394;47.044;15.744;2024-01-15T12:58:59;25.90;;;4.43;;
2772;SDS011;1394;47.044;15.744;2024-01-15T13:01:29;26.80;;;4.23;;
2772;SDS011;1394;47.044;15.744;2024-01-15T13:03:57;25.30;;;3.80;;
2772;SDS011;1394;47.044;15.744;2024-01-15T13:06:25;25.60;;;4.23;;
2772;SDS011;1394;47.044;15.744;2024-01-15T13:08:54;24.87;;;3.33;;
2772;SDS011;1394;47.044;15.744;2024-01-15T13:11:23;25.87;;;4.63;;
2772;SDS011;1394;47.044;15.744;2024-01-15T13:13:51;27.03;;;5.20;;
2772;SDS011;1394;47.044;15.744;2024-01-15T13:16:19;26.23;;;5.00;;
2772;SDS011;1394;47.044;15.744;2024-01-15T13:18:48;26.77;;;4.70;;
2772;SDS011;1394;47.044;15.744;2024-01-15T13:21:16;26.03;;;4.47;;
2772;SDS011;1394;47.044;15.744;2024-01-15T13:23:43;25.70;;;3.93;;
2772;SDS011;1394;47.044;15.744;2024-01-15T13:26:13;25.77;;;4.10;;
2772;SDS011;1394;47.044;15.744;2024-01-15T13:28:43;26.53;;;5.27;;
2772;SDS011;1394;47.044;15.744;2024-01-15T13:31:10;27.50;;;5.60;;
2772;SDS011;1394;47.044;15.744;2024-01-15T13:33:39;29.70;;;7.17;;
2772;SDS011;1394;47.044;15.744;2024-01-15T13:36:08;28.80;;;6.20;;
2772;SDS011;1394;47.044;15.744;2024-01-15T13:38:36;29.00;;;6.70;;
2772;SDS011;1394;47.044;15.744;2024-01-15T13:41:03;29.67;;;6.70;;
2772;SDS011;1394;47.044;15.744;2024-01-15T13:43:35;30.90;;;7.70;;
2772;SDS011;1394;47.044;15.744;2024-01-15T13:46:02;57.83;;;33.57;;
2772;SDS011;1394;47.044;15.744;2024-01-15T13:48:30;28.47;;;7.40;;
2772;SDS011;1394;47.044;15.744;2024-01-15T13:51:00;29.23;;;7.03;;
2772;SDS011;1394;47.044;15.744;2024-01-15T13:53:28;25.17;;;4.40;;
2772;SDS011;1394;47.044;15.744;2024-01-15T13:55:56;26.00;;;4.43;;
2772;SDS011;1394;47.044;15.744;2024-01-15T13:58:24;25.83;;;4.33;;
2772;SDS011;1394;47.044;15.744;2024-01-15T14:00:55;25.97;;;4.27;;
2772;SDS011;1394;47.044;15.744;2024-01-15T14:03:23;25.50;;;4.10;;
2772;SDS011;1394;47.044;15.744;2024-01-15T14:05:50;25.93;;;4.10;;
2772;SDS011;1394;47.044;15.744;2024-01-15T14:08:20;25.60;;;4.37;;
2772;SDS011;1394;47.044;15.744;2024-01-15T14:10:49;26.30;;;4.00;;
2772;SDS011;1394;47.044;15.744;2024-01-15T14:13:16;25.70;;;4.03;;
2772;SDS011;1394;47.044;15.744;2024-01-15T14:15:43;25.80;;;3.60;;
2772;SDS011;1394;47.044;15.744;2024-01-15T14:18:14;24.70;;;3.10;;
2772;SDS011;1394;47.044;15.744;2024-01-15T14:20:41;25.37;;;3.43;;
2772;SDS011;1394;47.044;15.744;2024-01-15T14:23:08;25.67;;;3.80;;
2772;SDS011;1394;47.044;15.744;2024-01-15T14:25:36;24.77;;;3.10;;
2772;SDS011;1394;47.044;15.744;2024-01-15T14:28:03;24.70;;;3.00;;
2772;SDS011;1394;47.044;15.744;2024-01-15T14:30:31;25.10;;;3.63;;
2772;SDS011;1394;47.044;15.744;2024-01-15T14:32:59;30.10;;;8.30;;
2772;SDS011;1394;47.044;15.744;2024-01-15T14:35:28;37.60;;;14.07;;
2772;SDS011;1394;47.044;15.744;2024-01-15T14:37:55;41.87;;;18.57;;
2772;SDS011;1394;47.044;15.744;2024-01-15T14:40:24;47.70;;;23.03;;
2772;SDS011;1394;47.044;15.744;2024-01-15T14:42:51;26.30;;;4.00;;
2772;SDS011;1394;47.044;15.744;2024-01-15T14:45:20;31.23;;;9.97;;
2772;SDS011;1394;47.044;15.744;2024-01-15T14:47:48;48.43;;;21.63;;
2772;SDS011;1394;47.044;15.744;2024-01-15T14:50:15;80.40;;;37.80;;
2772;SDS011;1394;47.044;15.744;2024-01-15T14:52:45;77.73;;;34.33;;
2772;SDS011;1394;47.044;15.744;2024-01-15T14:55:15;69.30;;;28.73;;
2772;SDS011;1394;47.044;15.744;2024-01-15T14:57:45;83.77;;;34.87;;
2772;SDS011;1394;47.044;15.744;2024-01-15T15:00:14;47.63;;;16.80;;
2772;SDS011;1394;47.044;15.744;2024-01-15T15:02:42;80.60;;;39.90;;